sensor_id;sensor_type;location;lat;lon;timestamp;pressure;altitude;pressure_sealevel;temperature;humidity
41898;BME280;27576;53.366;-1.498;2022-09-24T00:00:28;100304.03;;;12.98;76.90
41898;BME280;27576;53.366;-1.498;2022-09-24T00:02:55;100290.13;;;12.89;76.67
41898;BME280;27576;53.366;-1.498;2022-09-24T00:05:20;100277.13;;;12.80;76.73
41898;BME280;27576;53.366;-1.498;2022-09-24T00:07:45;100290.13;;;12.83;77.41
41898;BME280;27576;53.366;-1.498;2022-09-24T00:10:11;100289.25;;;12.84;77.23
41898;BME280;27576;53.366;-1.498;2022-09-24T00:12:37;100299.69;;;12.85;77.19
41898;BME280;27576;53.366;-1.498;2022-09-24T00:15:02;100301.41;;;12.83;77.26
41898;BME280;27576;53.366;-1.498;2022-09-24T00:17:28;100280.56;;;12.66;77.44
41898;BME280;27576;53.366;-1.498;2022-09-24T00:19:53;100271.03;;;12.62;77.79
41898;BME280;27576;53.366;-1.498;2022-09-24T00:22:19;100284.03;;;12.68;77.23
41898;BME280;27576;53.366;-1.498;2022-09-24T00:24:44;100294.44;;;12.73;77.32
41898;BME280;27576;53.366;-1.498;2022-09-24T00:27:28;100222.44;;;12.27;77.41
41898;BME280;27576;53.366;-1.498;2022-09-24T00:29:53;100251.94;;;12.42;77.02
41898;BME280;27576;53.366;-1.498;2022-09-24T00:32:19;100292.69;;;12.58;77.17
41898;BME280;27576;53.366;-1.498;2022-09-24T00:34:44;100252.75;;;12.33;77.22
41898;BME280;27576;53.366;-1.498;2022-09-24T00:37:09;100272.69;;;12.39;77.44
41898;BME280;27576;53.366;-1.498;2022-09-24T00:39:35;100279.66;;;12.43;77.19
41898;BME280;27576;53.366;-1.498;2022-09-24T00:42:00;100269.22;;;12.31;77.39
41898;BME280;27576;53.366;-1.498;2022-09-24T00:47:37;100303.91;;;12.42;78.38
41898;BME280;27576;53.366;-1.498;2022-09-24T00:50:05;100303.00;;;12.37;78.26
41898;BME280;27576;53.366;-1.498;2022-09-24T00:52:34;100283.91;;;12.22;77.69
41898;BME280;27576;53.366;-1.498;2022-09-24T00:55:02;100306.44;;;12.31;78.15
41898;BME280;27576;53.366;-1.498;2022-09-24T00:57:27;100315.97;;;12.27;78.76
41898;BME280;27576;53.366;-1.498;2022-09-24T00:59:53;100268.22;;;12.06;78.94
41898;BME280;27576;53.366;-1.498;2022-09-24T01:02:19;100278.63;;;12.07;78.78
41898;BME280;27576;53.366;-1.498;2022-09-24T01:04:45;100307.25;;;12.21;78.72
41898;BME280;27576;53.366;-1.498;2022-09-24T01:07:11;100279.50;;;12.03;78.79
41898;BME280;27576;53.366;-1.498;2022-09-24T01:09:36;100308.13;;;12.18;78.78
41898;BME280;27576;53.366;-1.498;2022-09-24T01:28:34;100297.63;;;12.01;79.28
41898;BME280;27576;53.366;-1.498;2022-09-24T01:31:22;100298.47;;;11.97;79.84
41898;BME280;27576;53.366;-1.498;2022-09-24T01:33:52;100298.47;;;11.93;79.34
41898;BME280;27576;53.366;-1.498;2022-09-24T01:36:20;100294.97;;;11.88;78.71
41898;BME280;27576;53.366;-1.498;2022-09-24T01:38:46;100269.72;;;11.67;79.07
41898;BME280;27576;53.366;-1.498;2022-09-24T01:41:14;100268.81;;;11.62;79.08
41898;BME280;27576;53.366;-1.498;2022-09-24T01:43:42;100294.00;;;11.73;79.43
41898;BME280;27576;53.366;-1.498;2022-09-24T01:46:07;100296.59;;;11.73;79.43
41898;BME280;27576;53.366;-1.498;2022-09-24T01:48:38;100300.91;;;11.71;79.45
41898;BME280;27576;53.366;-1.498;2022-09-24T01:51:20;100300.84;;;11.67;79.67
41898;BME280;27576;53.366;-1.498;2022-09-24T01:54:09;100296.53;;;11.64;80.02
41898;BME280;27576;53.366;-1.498;2022-09-24T01:56:52;100297.38;;;11.60;79.53
41898;BME280;27576;53.366;-1.498;2022-09-24T01:59:45;100292.16;;;11.57;79.71
41898;BME280;27576;53.366;-1.498;2022-09-24T02:04:52;100296.47;;;11.52;79.28
41898;BME280;27576;53.366;-1.498;2022-09-24T02:07:29;100274.72;;;11.39;79.10
41898;BME280;27576;53.366;-1.498;2022-09-24T02:09:57;100274.72;;;11.38;79.13
41898;BME280;27576;53.366;-1.498;2022-09-24T02:12:36;100292.09;;;11.49;79.40
41898;BME280;27576;53.366;-1.498;2022-09-24T02:15:10;100286.91;;;11.49;79.76
41898;BME280;27576;53.366;-1.498;2022-09-24T02:17:39;100289.50;;;11.51;80.18
41898;BME280;27576;53.366;-1.498;2022-09-24T02:20:11;100272.19;;;11.44;80.13
41898;BME280;27576;53.366;-1.498;2022-09-24T02:22:38;100288.66;;;11.53;79.74
41898;BME280;27576;53.366;-1.498;2022-09-24T02:25:09;100279.09;;;11.45;79.41
41898;BME280;27576;53.366;-1.498;2022-09-24T02:27:35;100260.84;;;11.36;79.71
41898;BME280;27576;53.366;-1.498;2022-09-24T02:30:01;100271.28;;;11.42;79.39
41898;BME280;27576;53.366;-1.498;2022-09-24T02:32:31;100269.56;;;11.41;79.83
41898;BME280;27576;53.366;-1.498;2022-09-24T02:35:02;100290.38;;;11.50;80.08
41898;BME280;27576;53.366;-1.498;2022-09-24T02:37:34;100290.38;;;11.50;80.21
41898;BME280;27576;53.366;-1.498;2022-09-24T02:40:00;100289.47;;;11.46;80.08
41898;BME280;27576;53.366;-1.498;2022-09-24T02:42:25;100284.22;;;11.39;80.17
41898;BME280;27576;53.366;-1.498;2022-09-24T02:44:50;100288.56;;;11.38;80.69
41898;BME280;27576;53.366;-1.498;2022-09-24T02:47:16;100272.03;;;11.25;80.57
41898;BME280;27576;53.366;-1.498;2022-09-24T02:49:43;100296.31;;;11.34;80.82
41898;BME280;27576;53.366;-1.498;2022-09-24T02:52:08;100288.44;;;11.21;80.86
41898;BME280;27576;53.366;-1.498;2022-09-24T02:54:34;100295.38;;;11.24;80.72
41898;BME280;27576;53.366;-1.498;2022-09-24T02:56:59;100291.00;;;11.18;80.67
41898;BME280;27576;53.366;-1.498;2022-09-24T02:59:25;100293.59;;;11.20;80.36
41898;BME280;27576;53.366;-1.498;2022-09-24T03:01:50;100293.63;;;11.21;80.28
41898;BME280;27576;53.366;-1.498;2022-09-24T03:04:15;100293.66;;;11.24;80.12
41898;BME280;27576;53.366;-1.498;2022-09-24T03:06:41;100291.06;;;11.24;80.31
41898;BME280;27576;53.366;-1.498;2022-09-24T03:09:07;100283.19;;;11.14;80.89
41898;BME280;27576;53.366;-1.498;2022-09-24T03:11:35;100277.03;;;11.04;81.77
41898;BME280;27576;53.366;-1.498;2022-09-24T03:14:01;100294.41;;;11.14;81.73
41898;BME280;27576;53.366;-1.498;2022-09-24T03:16:26;100268.31;;;10.93;82.04
41898;BME280;27576;53.366;-1.498;2022-09-24T03:18:51;100306.56;;;11.17;81.93
41898;BME280;27576;53.366;-1.498;2022-09-24T03:21:19;100296.94;;;11.06;81.96
41898;BME280;27576;53.366;-1.498;2022-09-24T03:23:44;100309.09;;;11.15;81.62
41898;BME280;27576;53.366;-1.498;2022-09-24T03:26:10;100304.78;;;11.13;82.39
41898;BME280;27576;53.366;-1.498;2022-09-24T03:28:36;100307.38;;;11.13;82.84
41898;BME280;27576;53.366;-1.498;2022-09-24T03:31:02;100284.78;;;10.98;83.50
41898;BME280;27576;53.366;-1.498;2022-09-24T03:33:36;100296.94;;;11.05;84.06
41898;BME280;27576;53.366;-1.498;2022-09-24T03:36:05;100306.53;;;11.12;84.43
41898;BME280;27576;53.366;-1.498;2022-09-24T03:38:32;100310.00;;;11.17;84.42
41898;BME280;27576;53.366;-1.498;2022-09-24T03:40:59;100304.81;;;11.17;84.60
41898;BME280;27576;53.366;-1.498;2022-09-24T03:43:25;100301.31;;;11.14;84.45
41898;BME280;27576;53.366;-1.498;2022-09-24T03:45:51;100310.94;;;11.24;83.95
41898;BME280;27576;53.366;-1.498;2022-09-24T03:48:19;100318.72;;;11.24;84.72
41898;BME280;27576;53.366;-1.498;2022-09-24T03:50:45;100299.59;;;11.16;85.32
41898;BME280;27576;53.366;-1.498;2022-09-24T03:53:13;100284.88;;;11.12;84.39
41898;BME280;27576;53.366;-1.498;2022-09-24T03:55:46;100321.38;;;11.33;84.78
41898;BME280;27576;53.366;-1.498;2022-09-24T03:58:14;100319.66;;;11.35;84.35
41898;BME280;27576;53.366;-1.498;2022-09-24T04:00:40;100316.16;;;11.31;84.86
41898;BME280;27576;53.366;-1.498;2022-09-24T04:03:05;100314.41;;;11.24;84.49
41898;BME280;27576;53.366;-1.498;2022-09-24T04:05:31;100330.03;;;11.34;83.73
41898;BME280;27576;53.366;-1.498;2022-09-24T04:07:58;100306.56;;;11.18;84.45
41898;BME280;27576;53.366;-1.498;2022-09-24T04:10:23;100303.91;;;11.12;84.10
41898;BME280;27576;53.366;-1.498;2022-09-24T04:12:50;100325.63;;;11.26;83.38
41898;BME280;27576;53.366;-1.498;2022-09-24T04:15:17;100323.88;;;11.22;83.85
41898;BME280;27576;53.366;-1.498;2022-09-24T04:17:54;100326.47;;;11.21;84.14
41898;BME280;27576;53.366;-1.498;2022-09-24T04:20:21;100328.13;;;11.16;84.10
41898;BME280;27576;53.366;-1.498;2022-09-24T04:22:50;100325.50;;;11.11;84.29
41898;BME280;27576;53.366;-1.498;2022-09-24T04:25:17;100289.88;;;10.90;84.05
41898;BME280;27576;53.366;-1.498;2022-09-24T04:27:43;100322.84;;;11.02;84.54
41898;BME280;27576;53.366;-1.498;2022-09-24T04:30:11;100331.47;;;11.02;84.84
41898;BME280;27576;53.366;-1.498;2022-09-24T04:32:38;100286.31;;;10.79;85.57
41898;BME280;27576;53.366;-1.498;2022-09-24T04:35:04;100305.41;;;10.86;85.72
41898;BME280;27576;53.366;-1.498;2022-09-24T04:37:30;100325.38;;;10.97;87.23
41898;BME280;27576;53.366;-1.498;2022-09-24T04:39:55;100329.72;;;10.98;86.00
41898;BME280;27576;53.366;-1.498;2022-09-24T04:42:20;100323.63;;;10.96;86.95
41898;BME280;27576;53.366;-1.498;2022-09-24T04:44:46;100324.47;;;10.94;86.73
41898;BME280;27576;53.366;-1.498;2022-09-24T04:47:15;100335.78;;;11.02;86.15
41898;BME280;27576;53.366;-1.498;2022-09-24T04:49:41;100333.19;;;11.02;86.12
41898;BME280;27576;53.366;-1.498;2022-09-24T04:52:09;100328.88;;;11.04;85.85
41898;BME280;27576;53.366;-1.498;2022-09-24T04:54:34;100332.34;;;11.03;87.11
41898;BME280;27576;53.366;-1.498;2022-09-24T04:57:00;100324.59;;;11.04;87.14
41898;BME280;27576;53.366;-1.498;2022-09-24T04:59:25;100302.84;;;10.89;86.71
41898;BME280;27576;53.366;-1.498;2022-09-24T05:01:50;100329.78;;;11.06;87.68
41898;BME280;27576;53.366;-1.498;2022-09-24T05:04:18;100338.44;;;11.08;87.68
41898;BME280;27576;53.366;-1.498;2022-09-24T05:06:43;100335.84;;;11.08;87.87
41898;BME280;27576;53.366;-1.498;2022-09-24T05:09:09;100319.28;;;10.94;87.03
41898;BME280;27576;53.366;-1.498;2022-09-24T05:11:34;100311.47;;;10.89;86.37
41898;BME280;27576;53.366;-1.498;2022-09-24T05:14:00;100228.91;;;10.41;86.93
41898;BME280;27576;53.366;-1.498;2022-09-24T05:16:25;100342.78;;;11.09;86.12
41898;BME280;27576;53.366;-1.498;2022-09-24T05:18:50;100334.03;;;10.99;86.05
41898;BME280;27576;53.366;-1.498;2022-09-24T05:21:16;100346.22;;;11.06;85.85
41898;BME280;27576;53.366;-1.498;2022-09-24T05:23:41;100298.41;;;10.78;85.63
41898;BME280;27576;53.366;-1.498;2022-09-24T05:26:06;100330.53;;;10.94;85.78
41898;BME280;27576;53.366;-1.498;2022-09-24T05:28:52;100354.84;;;11.07;86.19
41898;BME280;27576;53.366;-1.498;2022-09-24T05:31:17;100354.03;;;11.10;86.55
41898;BME280;27576;53.366;-1.498;2022-09-24T05:33:42;100355.75;;;11.11;86.50
41898;BME280;27576;53.366;-1.498;2022-09-24T05:36:08;100330.53;;;10.93;87.24
41898;BME280;27576;53.366;-1.498;2022-09-24T05:38:33;100344.47;;;11.05;87.02
41898;BME280;27576;53.366;-1.498;2022-09-24T05:40:59;100354.03;;;11.11;87.44
41898;BME280;27576;53.366;-1.498;2022-09-24T05:43:24;100365.31;;;11.13;88.21
41898;BME280;27576;53.366;-1.498;2022-09-24T05:45:52;100365.31;;;11.13;88.19
41898;BME280;27576;53.366;-1.498;2022-09-24T05:48:19;100367.91;;;11.13;87.06
41898;BME280;27576;53.366;-1.498;2022-09-24T05:50:45;100336.53;;;10.90;86.96
41898;BME280;27576;53.366;-1.498;2022-09-24T05:53:10;100376.50;;;11.09;87.30
41898;BME280;27576;53.366;-1.498;2022-09-24T05:55:35;100378.22;;;11.12;87.73
41898;BME280;27576;53.366;-1.498;2022-09-24T05:58:02;100382.59;;;11.13;88.48
41898;BME280;27576;53.366;-1.498;2022-09-24T06:00:27;100353.88;;;10.93;88.77
41898;BME280;27576;53.366;-1.498;2022-09-24T06:02:53;100379.00;;;11.03;87.97
41898;BME280;27576;53.366;-1.498;2022-09-24T06:05:18;100354.69;;;10.92;87.25
41898;BME280;27576;53.366;-1.498;2022-09-24T06:07:44;100371.22;;;11.01;87.22
41898;BME280;27576;53.366;-1.498;2022-09-24T06:10:09;100386.00;;;11.10;86.70
41898;BME280;27576;53.366;-1.498;2022-09-24T06:12:35;100357.31;;;10.93;86.85
41898;BME280;27576;53.366;-1.498;2022-09-24T06:15:01;100367.72;;;10.98;86.51
41898;BME280;27576;53.366;-1.498;2022-09-24T06:17:26;100390.38;;;11.16;87.22
41898;BME280;27576;53.366;-1.498;2022-09-24T06:19:52;100374.69;;;11.03;86.46
41898;BME280;27576;53.366;-1.498;2022-09-24T06:22:18;100397.38;;;11.21;86.64
41898;BME280;27576;53.366;-1.498;2022-09-24T06:24:44;100374.78;;;11.10;85.78
41898;BME280;27576;53.366;-1.498;2022-09-24T06:27:10;100399.13;;;11.25;86.01
41898;BME280;27576;53.366;-1.498;2022-09-24T06:29:36;100386.09;;;11.19;85.59
41898;BME280;27576;53.366;-1.498;2022-09-24T06:32:02;100404.38;;;11.31;84.79
41898;BME280;27576;53.366;-1.498;2022-09-24T06:34:27;100402.66;;;11.35;84.46
41898;BME280;27576;53.366;-1.498;2022-09-24T06:36:53;100389.66;;;11.30;83.70
41898;BME280;27576;53.366;-1.498;2022-09-24T06:39:19;100397.44;;;11.29;83.04
41898;BME280;27576;53.366;-1.498;2022-09-24T06:41:44;100384.47;;;11.30;82.79
41898;BME280;27576;53.366;-1.498;2022-09-24T06:44:10;100414.00;;;11.42;82.29
41898;BME280;27576;53.366;-1.498;2022-09-24T06:46:36;100413.13;;;11.41;81.94
41898;BME280;27576;53.366;-1.498;2022-09-24T06:49:01;100409.66;;;11.42;82.31
41898;BME280;27576;53.366;-1.498;2022-09-24T06:51:27;100411.41;;;11.43;82.72
41898;BME280;27576;53.366;-1.498;2022-09-24T06:53:52;100386.19;;;11.30;82.59
41898;BME280;27576;53.366;-1.498;2022-09-24T06:56:17;100394.06;;;11.39;82.88
41898;BME280;27576;53.366;-1.498;2022-09-24T06:58:43;100419.25;;;11.49;82.31
41898;BME280;27576;53.366;-1.498;2022-09-24T07:01:08;100417.53;;;11.50;81.70
41898;BME280;27576;53.366;-1.498;2022-09-24T07:03:34;100399.31;;;11.44;81.02
41898;BME280;27576;53.366;-1.498;2022-09-24T07:06:02;100410.63;;;11.52;81.84
41898;BME280;27576;53.366;-1.498;2022-09-24T07:08:28;100421.94;;;11.62;80.62
41898;BME280;27576;53.366;-1.498;2022-09-24T07:10:53;100422.84;;;11.65;81.15
41898;BME280;27576;53.366;-1.498;2022-09-24T07:13:19;100396.72;;;11.47;81.00
41898;BME280;27576;53.366;-1.498;2022-09-24T07:15:45;100428.94;;;11.70;79.98
41898;BME280;27576;53.366;-1.498;2022-09-24T07:18:11;100427.25;;;11.72;80.07
41898;BME280;27576;53.366;-1.498;2022-09-24T07:20:37;100428.06;;;11.70;81.10
41898;BME280;27576;53.366;-1.498;2022-09-24T07:23:03;100436.78;;;11.76;81.17
41898;BME280;27576;53.366;-1.498;2022-09-24T07:25:29;100424.66;;;11.72;81.55
41898;BME280;27576;53.366;-1.498;2022-09-24T07:27:54;100412.47;;;11.65;79.70
41898;BME280;27576;53.366;-1.498;2022-09-24T07:30:20;100428.13;;;11.77;80.03
41898;BME280;27576;53.366;-1.498;2022-09-24T07:32:45;100447.34;;;11.92;80.01
41898;BME280;27576;53.366;-1.498;2022-09-24T07:35:12;100422.94;;;11.76;79.48
41898;BME280;27576;53.366;-1.498;2022-09-24T07:37:37;100439.53;;;11.87;79.49
41898;BME280;27576;53.366;-1.498;2022-09-24T07:40:03;100445.63;;;11.91;79.49
41898;BME280;27576;53.366;-1.498;2022-09-24T07:42:28;100437.78;;;11.88;79.98
41898;BME280;27576;53.366;-1.498;2022-09-24T07:44:54;100455.16;;;11.95;79.67
41898;BME280;27576;53.366;-1.498;2022-09-24T07:47:21;100453.44;;;11.98;79.68
41898;BME280;27576;53.366;-1.498;2022-09-24T07:49:46;100448.22;;;11.92;79.60
41898;BME280;27576;53.366;-1.498;2022-09-24T07:52:12;100458.69;;;12.03;80.00
41898;BME280;27576;53.366;-1.498;2022-09-24T07:54:38;100461.28;;;12.04;80.11
41898;BME280;27576;53.366;-1.498;2022-09-24T07:57:09;100463.91;;;12.08;79.94
41898;BME280;27576;53.366;-1.498;2022-09-24T07:59:36;100432.59;;;11.89;80.72
41898;BME280;27576;53.366;-1.498;2022-09-24T08:02:01;100435.25;;;11.98;81.34
41898;BME280;27576;53.366;-1.498;2022-09-24T08:04:27;100459.63;;;12.14;80.41
41898;BME280;27576;53.366;-1.498;2022-09-24T08:06:52;100464.00;;;12.18;81.50
41898;BME280;27576;53.366;-1.498;2022-09-24T08:09:17;100438.75;;;12.02;80.73
41898;BME280;27576;53.366;-1.498;2022-09-24T08:11:43;100470.06;;;12.20;81.28
41898;BME280;27576;53.366;-1.498;2022-09-24T08:14:09;100478.72;;;12.19;81.31
41898;BME280;27576;53.366;-1.498;2022-09-24T08:16:34;100474.38;;;12.20;81.22
41898;BME280;27576;53.366;-1.498;2022-09-24T08:18:59;100477.00;;;12.20;81.27
41898;BME280;27576;53.366;-1.498;2022-09-24T08:21:25;100453.56;;;12.11;82.08
41898;BME280;27576;53.366;-1.498;2022-09-24T08:23:52;100483.06;;;12.23;81.72
41898;BME280;27576;53.366;-1.498;2022-09-24T08:26:17;100447.47;;;12.09;82.38
41898;BME280;27576;53.366;-1.498;2022-09-24T08:28:42;100484.88;;;12.31;83.45
41898;BME280;27576;53.366;-1.498;2022-09-24T08:31:11;100484.00;;;12.32;82.77
41898;BME280;27576;53.366;-1.498;2022-09-24T08:33:37;100494.44;;;12.36;82.79
41898;BME280;27576;53.366;-1.498;2022-09-24T08:36:06;100489.31;;;12.48;82.97
41898;BME280;27576;53.366;-1.498;2022-09-24T08:38:33;100489.38;;;12.59;82.90
41898;BME280;27576;53.366;-1.498;2022-09-24T08:43:52;100492.94;;;12.73;82.03
41898;BME280;27576;53.366;-1.498;2022-09-24T08:46:32;100481.59;;;12.64;82.11
41898;BME280;27576;53.366;-1.498;2022-09-24T08:49:26;100479.81;;;12.57;81.76
41898;BME280;27576;53.366;-1.498;2022-09-24T08:54:30;100460.66;;;12.41;82.20
41898;BME280;27576;53.366;-1.498;2022-09-24T08:57:01;100506.72;;;12.63;82.82
41898;BME280;27576;53.366;-1.498;2022-09-24T08:59:33;100510.25;;;12.70;82.92
41898;BME280;27576;53.366;-1.498;2022-09-24T09:05:13;100512.13;;;12.98;82.61
41898;BME280;27576;53.366;-1.498;2022-09-24T09:10:16;100515.63;;;13.11;81.88
41898;BME280;27576;53.366;-1.498;2022-09-24T09:12:45;100513.91;;;13.16;82.32
41898;BME280;27576;53.366;-1.498;2022-09-24T09:15:17;100513.13;;;13.28;82.14
41898;BME280;27576;53.366;-1.498;2022-09-24T09:17:47;100516.63;;;13.39;82.03
41898;BME280;27576;53.366;-1.498;2022-09-24T09:20:18;100497.56;;;13.43;81.63
41898;BME280;27576;53.366;-1.498;2022-09-24T09:22:50;100506.28;;;13.59;81.27
41898;BME280;27576;53.366;-1.498;2022-09-24T09:25:27;100497.59;;;13.62;81.59
41898;BME280;27576;53.366;-1.498;2022-09-24T09:27:59;100521.06;;;13.82;80.29
41898;BME280;27576;53.366;-1.498;2022-09-24T09:30:25;100501.97;;;13.72;80.22
41898;BME280;27576;53.366;-1.498;2022-09-24T09:33:22;100521.09;;;13.94;79.95
41898;BME280;27576;53.366;-1.498;2022-09-24T09:35:56;100513.28;;;14.12;80.71
41898;BME280;27576;53.366;-1.498;2022-09-24T09:41:00;100521.09;;;14.38;78.98
41898;BME280;27576;53.366;-1.498;2022-09-24T09:43:27;100525.44;;;14.41;78.77
41898;BME280;27576;53.366;-1.498;2022-09-24T09:46:13;100515.88;;;14.47;79.51
41898;BME280;27576;53.366;-1.498;2022-09-24T09:48:47;100517.59;;;14.70;78.31
41898;BME280;27576;53.366;-1.498;2022-09-24T09:51:21;100522.81;;;14.71;77.86
41898;BME280;27576;53.366;-1.498;2022-09-24T09:53:59;100523.72;;;14.58;77.59
41898;BME280;27576;53.366;-1.498;2022-09-24T09:56:30;100530.66;;;14.50;78.56
41898;BME280;27576;53.366;-1.498;2022-09-24T09:59:27;100523.69;;;14.41;79.87
41898;BME280;27576;53.366;-1.498;2022-09-24T10:01:55;100522.81;;;14.38;80.03
41898;BME280;27576;53.366;-1.498;2022-09-24T10:07:07;100513.28;;;14.54;80.16
41898;BME280;27576;53.366;-1.498;2022-09-24T10:09:34;100537.56;;;14.77;79.94
41898;BME280;27576;53.366;-1.498;2022-09-24T10:12:26;100540.19;;;14.79;78.37
41898;BME280;27576;53.366;-1.498;2022-09-24T10:15:03;100541.94;;;14.75;79.75
41898;BME280;27576;53.366;-1.498;2022-09-24T10:17:34;100540.22;;;14.74;79.49
41898;BME280;27576;53.366;-1.498;2022-09-24T10:20:02;100538.47;;;14.71;79.36
41898;BME280;27576;53.366;-1.498;2022-09-24T10:22:31;100545.41;;;14.69;79.20
41898;BME280;27576;53.366;-1.498;2022-09-24T10:24:57;100542.78;;;14.72;79.82
41898;BME280;27576;53.366;-1.498;2022-09-24T10:27:35;100521.09;;;14.64;80.31
41898;BME280;27576;53.366;-1.498;2022-09-24T10:30:10;100542.75;;;14.89;80.09
41898;BME280;27576;53.366;-1.498;2022-09-24T10:32:56;100530.59;;;14.87;79.21
41898;BME280;27576;53.366;-1.498;2022-09-24T10:35:29;100547.06;;;15.04;78.76
41898;BME280;27576;53.366;-1.498;2022-09-24T10:37:59;100545.34;;;15.02;77.86
41898;BME280;27576;53.366;-1.498;2022-09-24T10:40:30;100514.97;;;14.71;77.81
41898;BME280;27576;53.366;-1.498;2022-09-24T10:43:03;100545.34;;;14.89;77.60
41898;BME280;27576;53.366;-1.498;2022-09-24T10:51:23;100539.28;;;14.84;76.68
41898;BME280;27576;53.366;-1.498;2022-09-24T10:56:58;100555.78;;;15.06;75.28
41898;BME280;27576;53.366;-1.498;2022-09-24T11:05:32;100529.56;;;15.34;74.68
41898;BME280;27576;53.366;-1.498;2022-09-24T11:08:05;100551.16;;;15.71;73.24
41898;BME280;27576;53.366;-1.498;2022-09-24T11:13:31;100556.78;;;16.36;72.65
41898;BME280;27576;53.366;-1.498;2022-09-24T11:16:18;100564.38;;;16.65;69.93
41898;BME280;27576;53.366;-1.498;2022-09-24T11:30:19;100537.34;;;16.64;67.35
41898;BME280;27576;53.366;-1.498;2022-09-24T11:35:51;100571.34;;;16.64;66.83
41898;BME280;27576;53.366;-1.498;2022-09-24T11:40:57;100563.63;;;16.52;67.76
41898;BME280;27576;53.366;-1.498;2022-09-24T11:51:51;100566.84;;;17.56;64.61
41898;BME280;27576;53.366;-1.498;2022-09-24T11:57:24;100566.63;;;17.03;63.53
41898;BME280;27576;53.366;-1.498;2022-09-24T12:00:05;100556.88;;;17.16;65.10
41898;BME280;27576;53.366;-1.498;2022-09-24T12:02:39;100561.69;;;17.50;62.80
41898;BME280;27576;53.366;-1.498;2022-09-24T12:05:32;100563.56;;;17.41;61.94
41898;BME280;27576;53.366;-1.498;2022-09-24T12:11:05;100566.56;;;18.36;58.29
41898;BME280;27576;53.366;-1.498;2022-09-24T12:14:05;100577.41;;;18.14;57.38
41898;BME280;27576;53.366;-1.498;2022-09-24T12:16:38;100572.66;;;17.81;58.88
41898;BME280;27576;53.366;-1.498;2022-09-24T12:19:26;100581.06;;;17.38;59.13
41898;BME280;27576;53.366;-1.498;2022-09-24T12:21:54;100565.81;;;16.97;59.11
41898;BME280;27576;53.366;-1.498;2022-09-24T12:24:30;100562.63;;;16.67;60.03
41898;BME280;27576;53.366;-1.498;2022-09-24T12:27:01;100548.41;;;16.94;60.85
41898;BME280;27576;53.366;-1.498;2022-09-24T12:35:52;100568.31;;;19.75;54.05
41898;BME280;27576;53.366;-1.498;2022-09-24T12:43:45;100587.47;;;19.38;51.50
41898;BME280;27576;53.366;-1.498;2022-09-24T12:46:25;100583.38;;;18.77;53.21
41898;BME280;27576;53.366;-1.498;2022-09-24T12:48:53;100565.19;;;18.13;54.82
41898;BME280;27576;53.366;-1.498;2022-09-24T12:51:20;100577.00;;;17.82;55.69
41898;BME280;27576;53.366;-1.498;2022-09-24T12:53:58;100597.38;;;17.61;56.49
41898;BME280;27576;53.366;-1.498;2022-09-24T12:56:29;100596.88;;;17.30;57.66
41898;BME280;27576;53.366;-1.498;2022-09-24T12:58:55;100587.47;;;17.14;57.77
41898;BME280;27576;53.366;-1.498;2022-09-24T13:01:27;100567.84;;;17.47;61.51
41898;BME280;27576;53.366;-1.498;2022-09-24T13:06:42;100585.41;;;19.52;53.42
41898;BME280;27576;53.366;-1.498;2022-09-24T13:09:38;100601.22;;;19.93;49.13
41898;BME280;27576;53.366;-1.498;2022-09-24T13:14:41;100596.47;;;20.08;50.81
41898;BME280;27576;53.366;-1.498;2022-09-24T13:17:13;100589.66;;;20.35;49.64
41898;BME280;27576;53.366;-1.498;2022-09-24T13:19:41;100598.88;;;20.55;48.95
41898;BME280;27576;53.366;-1.498;2022-09-24T13:24:49;100594.44;;;20.57;48.25
41898;BME280;27576;53.366;-1.498;2022-09-24T13:30:05;100607.41;;;19.90;47.62
41898;BME280;27576;53.366;-1.498;2022-09-24T13:32:53;100599.69;;;19.39;48.05
41898;BME280;27576;53.366;-1.498;2022-09-24T13:35:29;100592.56;;;19.01;48.83
41898;BME280;27576;53.366;-1.498;2022-09-24T13:38:20;100605.25;;;18.77;50.74
41898;BME280;27576;53.366;-1.498;2022-09-24T13:40:58;100609.09;;;18.56;50.76
41898;BME280;27576;53.366;-1.498;2022-09-24T13:43:38;100593.88;;;18.23;50.14
41898;BME280;27576;53.366;-1.498;2022-09-24T13:46:13;100604.59;;;18.09;50.73
41898;BME280;27576;53.366;-1.498;2022-09-24T13:48:42;100609.22;;;17.90;51.82
41898;BME280;27576;53.366;-1.498;2022-09-24T13:51:10;100621.66;;;17.74;52.20
41898;BME280;27576;53.366;-1.498;2022-09-24T13:56:14;100619.44;;;17.42;53.39
41898;BME280;27576;53.366;-1.498;2022-09-24T13:58:41;100606.47;;;17.30;54.25
41898;BME280;27576;53.366;-1.498;2022-09-24T14:01:15;100610.94;;;17.20;54.89
41898;BME280;27576;53.366;-1.498;2022-09-24T14:03:50;100617.97;;;17.18;54.52
41898;BME280;27576;53.366;-1.498;2022-09-24T14:06:18;100585.88;;;16.98;55.27
41898;BME280;27576;53.366;-1.498;2022-09-24T14:08:47;100612.88;;;17.03;55.25
41898;BME280;27576;53.366;-1.498;2022-09-24T14:11:22;100626.00;;;17.00;54.19
41898;BME280;27576;53.366;-1.498;2022-09-24T14:13:50;100605.28;;;16.77;53.98
41898;BME280;27576;53.366;-1.498;2022-09-24T14:16:23;100598.22;;;16.85;54.43
41898;BME280;27576;53.366;-1.498;2022-09-24T14:19:03;100611.16;;;17.00;52.67
41898;BME280;27576;53.366;-1.498;2022-09-24T14:21:42;100599.69;;;17.13;54.74
41898;BME280;27576;53.366;-1.498;2022-09-24T14:24:38;100628.09;;;17.47;52.08
41898;BME280;27576;53.366;-1.498;2022-09-24T14:27:00;100634.13;;;17.54;52.61
41898;BME280;27576;53.366;-1.498;2022-09-24T14:29:44;100622.09;;;17.39;52.10
41898;BME280;27576;53.366;-1.498;2022-09-24T14:34:58;100614.34;;;17.30;53.26
41898;BME280;27576;53.366;-1.498;2022-09-24T14:37:33;100638.69;;;17.36;51.39
41898;BME280;27576;53.366;-1.498;2022-09-24T14:40:05;100635.22;;;17.37;51.50
41898;BME280;27576;53.366;-1.498;2022-09-24T14:42:46;100627.34;;;17.36;50.70
41898;BME280;27576;53.366;-1.498;2022-09-24T14:45:21;100641.75;;;17.75;49.66
41898;BME280;27576;53.366;-1.498;2022-09-24T14:47:58;100638.03;;;18.52;49.80